青島 の空港の天気 - METARとTAF

青島流亭国際空港 ( ZSQD / TAO ) - 中国 山東省青島市
飛行場実況気象(Metar)
観測時間12/17 05:00 CST (12/16 21:00 UTC)
風向・風速不定 1m/s
視程3000m
天気現象もや
なし
気温-3℃
湿度93%
気圧1022hPa
METARZSQD 162100Z VRB01MPS 3000 BR NSC M03/M04 Q1022 BECMG TL2230 2500 BR
過去の天気等 Google飛行場航空写真 Wunderground天気予報

過去48時間のMETAR

飛行場予報(TAF)
発表時間: 12/16 23:11 CST (12/16 15:11 UTC)
予報対象時間: 17日2時 CST ~ 18日2時 CST
風向・風速北北西 3m/s
視程3500m
天気現象もや
なし
17日2時 CST ~ 17日8時 CST に一時的に
視程2000m
TAF ZSQD 161511Z 1618/1718 33003MPS 3500 BR NSC TX07/1706Z TNM02/21Z
TEMPO 1618/1624 2000